createdAt,value
2018-07-13T00:01:04.389Z,7.60
2018-07-13T00:03:32.815Z,8.63
2018-07-13T00:06:01.254Z,8.37
2018-07-13T00:08:29.703Z,6.80
2018-07-13T00:10:58.132Z,8.67
2018-07-13T00:13:26.540Z,8.87
2018-07-13T00:16:02.721Z,10.93
2018-07-13T00:18:31.281Z,7.90
2018-07-13T00:20:59.713Z,9.30
2018-07-13T00:23:28.252Z,10.33
2018-07-13T00:25:56.729Z,13.80
2018-07-13T00:28:25.181Z,14.30
2018-07-13T00:30:53.581Z,9.90
2018-07-13T00:33:21.988Z,10.83
2018-07-13T00:35:50.368Z,12.50
2018-07-13T00:38:19.556Z,12.27
2018-07-13T00:40:47.973Z,12.80
2018-07-13T00:43:16.417Z,13.47
2018-07-13T00:45:44.841Z,13.80
2018-07-13T00:48:13.364Z,10.17
2018-07-13T00:50:41.812Z,9.83
2018-07-13T00:53:10.220Z,10.03
2018-07-13T00:55:38.639Z,12.03
2018-07-13T00:58:07.076Z,13.20
2018-07-13T01:00:35.488Z,13.73
2018-07-13T01:03:04.368Z,14.20
2018-07-13T01:05:33.029Z,14.33
2018-07-13T01:08:01.417Z,13.60
2018-07-13T01:10:29.937Z,11.40
2018-07-13T01:12:58.324Z,10.73
2018-07-13T01:15:26.742Z,8.97
2018-07-13T01:17:55.608Z,11.43
2018-07-13T01:20:24.143Z,11.87
2018-07-13T01:22:52.525Z,12.03
2018-07-13T01:25:21.014Z,10.80
2018-07-13T01:27:49.515Z,13.13
2018-07-13T01:30:17.964Z,11.53
2018-07-13T01:32:46.792Z,11.60
2018-07-13T01:35:15.240Z,10.70
2018-07-13T01:37:43.694Z,10.13
2018-07-13T01:40:12.107Z,10.60
2018-07-13T01:42:40.537Z,9.60
2018-07-13T01:45:08.939Z,12.77
2018-07-13T01:47:37.458Z,12.50
2018-07-13T01:50:05.864Z,11.57
2018-07-13T01:52:34.272Z,8.87
2018-07-13T01:55:02.681Z,14.20
2018-07-13T01:57:31.065Z,12.43
2018-07-13T01:59:59.464Z,10.43
2018-07-13T02:02:27.901Z,11.73
2018-07-13T02:04:56.332Z,10.63
2018-07-13T02:07:24.774Z,9.37
2018-07-13T02:09:54.481Z,11.30
2018-07-13T02:12:23.180Z,10.93
2018-07-13T02:14:52.365Z,15.00
2018-07-13T02:17:21.217Z,12.27
2018-07-13T02:19:49.616Z,11.93
2018-07-13T02:22:18.065Z,10.90
2018-07-13T02:24:46.897Z,11.30
2018-07-13T02:27:16.109Z,13.97
2018-07-13T02:29:44.597Z,10.63
2018-07-13T02:32:13.052Z,12.13
2018-07-13T02:34:41.452Z,12.87
2018-07-13T02:37:09.849Z,12.10
2018-07-13T02:39:38.252Z,12.77
2018-07-13T02:42:06.713Z,13.87
2018-07-13T02:44:35.139Z,10.70
2018-07-13T02:47:03.558Z,12.23
2018-07-13T02:49:31.973Z,10.30
2018-07-13T02:52:00.411Z,10.40
2018-07-13T02:54:28.816Z,14.80
2018-07-13T02:56:57.300Z,12.77
2018-07-13T02:59:25.740Z,11.63
2018-07-13T03:01:54.505Z,12.17
2018-07-13T03:04:22.901Z,17.03
2018-07-13T03:06:51.544Z,16.67
2018-07-13T03:09:19.949Z,13.30
2018-07-13T03:11:48.328Z,13.87
2018-07-13T03:14:16.730Z,15.30
2018-07-13T03:16:45.186Z,12.97
2018-07-13T03:19:13.646Z,17.07
2018-07-13T03:21:42.070Z,11.90
2018-07-13T03:24:10.473Z,14.23
2018-07-13T03:26:38.892Z,12.50
2018-07-13T03:29:07.293Z,13.40
2018-07-13T03:31:35.818Z,12.83
2018-07-13T03:34:04.226Z,12.70
2018-07-13T03:36:32.676Z,11.47
2018-07-13T03:39:01.080Z,12.83
2018-07-13T03:41:29.505Z,10.67
2018-07-13T03:43:58.339Z,15.27
2018-07-13T03:46:26.769Z,14.00
2018-07-13T03:48:55.303Z,12.53
2018-07-13T03:51:23.720Z,10.73
2018-07-13T03:53:52.097Z,14.17
2018-07-13T03:56:20.535Z,11.90
2018-07-13T03:58:49.296Z,10.93
2018-07-13T04:01:17.755Z,15.33
2018-07-13T04:03:46.196Z,11.60
2018-07-13T04:06:14.609Z,11.03
2018-07-13T04:08:43.036Z,13.77
2018-07-13T04:11:11.477Z,13.40
2018-07-13T04:13:39.882Z,12.00
2018-07-13T04:16:08.396Z,10.00
2018-07-13T04:18:36.772Z,11.17
2018-07-13T04:21:05.323Z,16.73
2018-07-13T04:23:33.792Z,12.73
2018-07-13T04:26:02.462Z,15.33
2018-07-13T04:28:30.956Z,16.90
2018-07-13T04:30:59.470Z,13.03
2018-07-13T04:33:27.939Z,12.67
2018-07-13T04:35:56.364Z,10.27
2018-07-13T04:38:24.780Z,13.77
2018-07-13T04:40:53.239Z,12.97
2018-07-13T04:43:21.664Z,15.00
2018-07-13T04:45:50.216Z,16.07
2018-07-13T04:48:18.676Z,15.57
2018-07-13T04:50:47.184Z,16.23
2018-07-13T04:53:15.668Z,15.10
2018-07-13T04:55:44.173Z,19.87
2018-07-13T04:58:13.172Z,14.83
2018-07-13T05:00:41.762Z,11.83
2018-07-13T05:03:10.357Z,15.67
2018-07-13T05:05:38.876Z,16.00
2018-07-13T05:08:07.385Z,24.70
2018-07-13T05:10:35.870Z,14.70
2018-07-13T05:13:04.856Z,22.27
2018-07-13T05:15:33.406Z,14.87
2018-07-13T05:18:01.910Z,17.67
2018-07-13T05:20:30.348Z,18.20
2018-07-13T05:22:58.901Z,22.23
2018-07-13T05:25:27.380Z,16.87
2018-07-13T05:27:56.246Z,17.20
2018-07-13T05:30:24.759Z,12.77
2018-07-13T05:32:53.253Z,13.20
2018-07-13T05:35:21.726Z,18.87
2018-07-13T05:37:50.463Z,12.07
2018-07-13T05:40:18.932Z,10.43
2018-07-13T05:42:47.427Z,12.70
2018-07-13T05:45:15.894Z,11.47
2018-07-13T05:47:44.401Z,11.15
2018-07-13T05:50:12.973Z,14.05
2018-07-13T05:52:41.574Z,10.65
2018-07-13T05:55:10.164Z,14.23
2018-07-13T05:57:38.724Z,14.18
2018-07-13T06:00:07.200Z,15.28
2018-07-13T06:02:35.659Z,11.48
2018-07-13T06:05:04.177Z,12.73
2018-07-13T06:07:32.665Z,14.20
2018-07-13T06:10:01.197Z,12.23
2018-07-13T06:12:29.675Z,10.15
2018-07-13T06:14:58.115Z,12.45
2018-07-13T06:17:26.537Z,12.00
2018-07-13T06:19:54.947Z,12.63
2018-07-13T06:22:23.801Z,10.03
2018-07-13T06:24:52.243Z,13.90
2018-07-13T06:27:20.655Z,12.23
2018-07-13T06:29:49.048Z,9.90
2018-07-13T06:32:17.480Z,12.82
2018-07-13T06:34:45.978Z,14.00
2018-07-13T06:37:14.793Z,10.65
2018-07-13T06:39:43.291Z,11.10
2018-07-13T06:42:11.741Z,14.58
2018-07-13T06:44:40.233Z,12.65
2018-07-13T06:47:08.655Z,12.28
2018-07-13T06:49:37.099Z,10.63
2018-07-13T06:52:05.978Z,11.73
2018-07-13T06:54:34.392Z,12.98
2018-07-13T06:57:02.811Z,14.15
2018-07-13T06:59:31.238Z,15.35
2018-07-13T07:01:59.677Z,11.78
2018-07-13T07:04:33.123Z,14.78
2018-07-13T07:07:11.034Z,15.85
2018-07-13T07:09:40.461Z,14.28
2018-07-13T07:13:18.005Z,15.85
2018-07-13T07:15:46.495Z,17.03
2018-07-13T07:18:14.921Z,19.13
2018-07-13T07:20:43.361Z,15.27
2018-07-13T07:23:11.960Z,18.23
2018-07-13T07:25:40.492Z,21.33
2018-07-13T07:28:08.909Z,18.07
2018-07-13T07:30:37.458Z,19.00
2018-07-13T07:33:05.981Z,19.73
2018-07-13T07:35:34.510Z,21.60
2018-07-13T07:38:03.017Z,17.53
2018-07-13T07:40:31.809Z,19.13
2018-07-13T07:43:00.318Z,16.73
2018-07-13T07:45:28.955Z,16.67
2018-07-13T07:47:57.389Z,19.50
2018-07-13T07:50:25.849Z,15.60
2018-07-13T07:52:54.306Z,16.97
2018-07-13T07:55:22.740Z,17.50
2018-07-13T07:57:51.157Z,17.63
2018-07-13T08:00:19.576Z,20.07
2018-07-13T08:02:48.146Z,17.50
2018-07-13T08:05:16.595Z,19.50
2018-07-13T08:07:45.020Z,18.03
2018-07-13T08:10:13.457Z,15.40
2018-07-13T08:12:42.051Z,13.67
2018-07-13T08:15:10.669Z,13.37
2018-07-13T08:17:39.095Z,17.10
2018-07-13T08:20:07.747Z,19.43
2018-07-13T08:22:41.856Z,17.60
2018-07-13T08:25:14.396Z,17.67
2018-07-13T08:27:45.684Z,13.20
2018-07-13T08:30:32.801Z,16.63
2018-07-13T08:33:01.219Z,17.67
2018-07-13T08:35:29.612Z,16.33
2018-07-13T08:37:58.013Z,18.40
2018-07-13T08:40:26.488Z,14.30
2018-07-13T08:42:54.951Z,13.47
2018-07-13T08:45:23.571Z,12.37
2018-07-13T08:47:52.036Z,15.47
2018-07-13T08:50:20.520Z,11.43
2018-07-13T08:52:48.954Z,14.43
2018-07-13T08:55:17.458Z,14.40
2018-07-13T08:57:48.015Z,12.40
2018-07-13T09:00:16.680Z,20.83
2018-07-13T09:02:45.117Z,12.57
2018-07-13T09:05:14.508Z,14.57
2018-07-13T09:07:42.950Z,14.33
2018-07-13T09:10:12.604Z,13.80
2018-07-13T09:12:41.357Z,17.17
2018-07-13T09:15:11.496Z,11.27
2018-07-13T09:17:39.941Z,9.77
2018-07-13T09:20:10.103Z,9.30
2018-07-13T09:22:38.632Z,12.07
2018-07-13T09:25:07.823Z,9.83
2018-07-13T09:27:36.277Z,10.53
2018-07-13T09:30:04.921Z,12.43
2018-07-13T09:32:33.420Z,9.87
2018-07-13T09:35:02.010Z,13.23
2018-07-13T09:37:30.745Z,8.77
2018-07-13T09:39:59.165Z,11.80
2018-07-13T09:42:27.700Z,12.50
2018-07-13T09:44:56.258Z,17.03
2018-07-13T09:47:24.760Z,9.70
2018-07-13T09:49:53.313Z,12.60
2018-07-13T09:52:21.865Z,12.27
2018-07-13T09:54:50.293Z,11.50
2018-07-13T09:57:18.761Z,9.00
2018-07-13T09:59:47.337Z,8.10
2018-07-13T10:02:15.811Z,7.30
2018-07-13T10:04:44.264Z,9.43
2018-07-13T10:07:12.780Z,8.53
2018-07-13T10:09:41.197Z,9.53
2018-07-13T10:12:09.747Z,9.00
2018-07-13T10:14:38.265Z,7.77
2018-07-13T10:17:06.773Z,7.90
2018-07-13T10:19:35.305Z,8.70
2018-07-13T10:22:03.853Z,10.53
2018-07-13T10:24:33.422Z,8.07
2018-07-13T10:27:02.237Z,7.60
2018-07-13T10:29:34.100Z,9.40
2018-07-13T10:32:03.437Z,7.57
2018-07-13T10:34:32.604Z,4.53
2018-07-13T10:37:03.587Z,6.57
2018-07-13T10:39:32.531Z,8.43
2018-07-13T10:42:01.025Z,9.10
2018-07-13T10:44:29.492Z,8.93
2018-07-13T10:46:57.992Z,8.60
2018-07-13T10:49:27.413Z,7.60
2018-07-13T10:51:55.868Z,8.63
2018-07-13T10:54:24.402Z,7.50
2018-07-13T10:56:52.906Z,8.10
2018-07-13T10:59:21.407Z,8.07
2018-07-13T11:01:49.908Z,9.00
2018-07-13T11:04:18.339Z,7.70
2018-07-13T11:06:46.808Z,8.20
2018-07-13T11:09:15.306Z,7.70
2018-07-13T11:11:43.768Z,6.90
2018-07-13T11:14:12.225Z,6.77
2018-07-13T11:16:40.933Z,6.00
2018-07-13T11:19:09.540Z,5.70
2018-07-13T11:21:37.697Z,6.67
2018-07-13T11:24:06.569Z,5.80
2018-07-13T11:26:35.172Z,5.93
2018-07-13T11:29:03.600Z,4.90
2018-07-13T11:31:32.058Z,13.33
2018-07-13T11:34:00.568Z,6.37
2018-07-13T11:36:28.992Z,7.37
2018-07-13T11:38:57.468Z,5.23
2018-07-13T11:41:25.900Z,6.37
2018-07-13T11:43:54.361Z,4.83
2018-07-13T11:46:22.836Z,6.50
2018-07-13T11:48:51.375Z,3.53
2018-07-13T11:51:19.844Z,4.13
2018-07-13T11:53:48.292Z,5.10
2018-07-13T11:56:16.704Z,3.80
2018-07-13T11:58:45.216Z,3.73
2018-07-13T12:01:13.623Z,4.70
2018-07-13T12:03:41.765Z,5.07
2018-07-13T12:06:10.306Z,4.23
2018-07-13T12:08:39.484Z,5.43
2018-07-13T12:11:08.047Z,4.23
2018-07-13T12:13:36.448Z,4.93
2018-07-13T12:16:05.092Z,5.97
2018-07-13T12:18:33.580Z,4.67
2018-07-13T12:21:02.116Z,4.60
2018-07-13T12:23:30.584Z,5.70
2018-07-13T12:25:59.033Z,3.87
2018-07-13T12:28:27.476Z,6.30
2018-07-13T12:30:55.889Z,3.63
2018-07-13T12:33:24.443Z,5.13
2018-07-13T12:35:53.002Z,4.33
2018-07-13T12:38:23.209Z,4.63
2018-07-13T12:40:51.813Z,4.60
2018-07-13T12:43:20.238Z,4.63
2018-07-13T12:45:48.691Z,4.33
2018-07-13T12:48:17.073Z,5.77
2018-07-13T12:50:45.509Z,3.43
2018-07-13T12:53:13.984Z,4.03
2018-07-13T12:55:42.536Z,3.77
2018-07-13T12:58:10.985Z,5.17
2018-07-13T13:00:39.474Z,5.30
2018-07-13T13:03:08.006Z,5.10
2018-07-13T13:05:36.513Z,7.40
2018-07-13T13:08:04.647Z,3.77
2018-07-13T13:10:33.220Z,2.97
2018-07-13T13:13:01.869Z,5.40
2018-07-13T13:15:30.323Z,4.87
2018-07-13T13:17:58.776Z,4.10
2018-07-13T13:20:27.208Z,6.23
2018-07-13T13:22:55.613Z,7.97
2018-07-13T13:25:24.081Z,4.57
2018-07-13T13:27:52.549Z,10.97
2018-07-13T13:30:20.938Z,5.33
2018-07-13T13:32:49.383Z,3.57
2018-07-13T13:35:17.812Z,4.03
2018-07-13T13:37:46.400Z,5.90
2018-07-13T13:40:14.964Z,4.73
2018-07-13T13:42:43.447Z,4.53
2018-07-13T13:45:11.943Z,3.90
2018-07-13T13:47:40.404Z,5.07
2018-07-13T13:50:09.337Z,6.83
2018-07-13T13:52:37.905Z,5.57
2018-07-13T13:55:06.873Z,4.87
2018-07-13T13:57:35.306Z,5.70
2018-07-13T14:00:03.802Z,4.40
2018-07-13T14:02:32.232Z,4.50
2018-07-13T14:05:00.720Z,5.03
2018-07-13T14:07:29.165Z,4.57
2018-07-13T14:09:57.670Z,6.07
2018-07-13T14:12:26.134Z,6.80
2018-07-13T14:14:54.590Z,5.53
2018-07-13T14:17:23.041Z,4.30
2018-07-13T14:19:51.621Z,4.83
2018-07-13T14:22:20.220Z,3.77
2018-07-13T14:24:48.752Z,5.93
2018-07-13T14:27:17.191Z,5.60
2018-07-13T14:29:45.641Z,6.07
2018-07-13T14:32:14.024Z,4.80
2018-07-13T14:34:42.684Z,7.90
2018-07-13T14:37:11.062Z,11.27
2018-07-13T14:39:39.532Z,4.93
2018-07-13T14:42:08.013Z,3.87
2018-07-13T14:44:36.640Z,5.37
2018-07-13T14:47:05.383Z,3.05
2018-07-13T14:49:33.805Z,4.87
2018-07-13T14:52:02.265Z,4.37
2018-07-13T14:54:30.751Z,3.22
2018-07-13T14:56:59.139Z,3.77
2018-07-13T14:59:27.709Z,3.50
2018-07-13T15:01:56.244Z,4.65
2018-07-13T15:04:24.741Z,6.58
2018-07-13T15:06:53.442Z,3.58
2018-07-13T15:09:21.969Z,4.30
2018-07-13T15:11:50.495Z,4.97
2018-07-13T15:14:18.690Z,5.63
2018-07-13T15:16:47.204Z,5.33
2018-07-13T15:19:15.621Z,3.27
2018-07-13T15:21:44.337Z,3.30
2018-07-13T15:24:12.786Z,3.25
2018-07-13T15:26:41.224Z,4.78
2018-07-13T15:29:09.648Z,4.85
2018-07-13T15:31:38.162Z,4.75
2018-07-13T15:34:06.773Z,6.95
2018-07-13T15:36:35.193Z,5.67
2018-07-13T15:39:04.379Z,5.42
2018-07-13T15:41:32.833Z,4.42
2018-07-13T15:44:01.297Z,6.20
2018-07-13T15:46:29.803Z,5.53
2018-07-13T15:48:58.460Z,5.90
2018-07-13T15:51:26.876Z,6.78
2018-07-13T15:53:55.471Z,4.80
2018-07-13T15:56:23.922Z,4.42
2018-07-13T15:58:52.605Z,7.28
2018-07-13T16:01:21.020Z,4.10
2018-07-13T16:03:49.461Z,4.78
2018-07-13T16:06:18.038Z,4.37
2018-07-13T16:08:46.674Z,4.10
2018-07-13T16:11:15.126Z,4.37
2018-07-13T16:13:43.636Z,3.90
2018-07-13T16:16:12.095Z,4.58
2018-07-13T16:18:40.549Z,4.12
2018-07-13T16:21:08.996Z,9.27
2018-07-13T16:23:37.568Z,8.03
2018-07-13T16:26:06.467Z,6.22
2018-07-13T16:28:34.651Z,7.12
2018-07-13T16:31:03.193Z,4.53
2018-07-13T16:33:31.653Z,4.25
2018-07-13T16:36:00.255Z,4.37
2018-07-13T16:38:28.708Z,4.95
2018-07-13T16:40:57.285Z,5.37
2018-07-13T16:43:25.734Z,5.30
2018-07-13T16:45:54.190Z,6.67
2018-07-13T16:48:22.592Z,6.03
2018-07-13T16:50:51.232Z,4.75
2018-07-13T16:53:19.722Z,4.37
2018-07-13T16:55:48.222Z,5.00
2018-07-13T16:58:16.656Z,7.07
2018-07-13T17:00:45.088Z,4.90
2018-07-13T17:03:13.630Z,4.17
2018-07-13T17:05:42.067Z,3.98
2018-07-13T17:08:10.520Z,4.17
2018-07-13T17:10:38.975Z,4.05
2018-07-13T17:13:07.436Z,4.45
2018-07-13T17:15:36.136Z,10.85
2018-07-13T17:18:04.785Z,10.55
2018-07-13T17:20:33.486Z,19.80
2018-07-13T17:23:01.888Z,8.50
2018-07-13T17:25:30.336Z,15.00
2018-07-13T17:27:59.053Z,6.53
2018-07-13T17:30:27.493Z,9.90
2018-07-13T17:32:55.954Z,5.57
2018-07-13T17:35:24.385Z,5.08
2018-07-13T17:37:52.798Z,4.57
2018-07-13T17:40:21.255Z,8.95
2018-07-13T17:42:49.714Z,9.07
2018-07-13T17:45:18.218Z,3.27
2018-07-13T17:47:46.711Z,5.43
2018-07-13T17:50:15.181Z,4.73
2018-07-13T17:52:43.808Z,6.17
2018-07-13T17:55:12.603Z,8.03
2018-07-13T17:57:41.044Z,7.60
2018-07-13T18:00:09.574Z,6.72
2018-07-13T18:02:38.042Z,4.87
2018-07-13T18:05:06.703Z,4.50
2018-07-13T18:07:35.192Z,11.07
2018-07-13T18:10:03.728Z,4.63
2018-07-13T18:12:32.289Z,4.03
2018-07-13T18:15:00.726Z,5.20
2018-07-13T18:17:29.160Z,3.70
2018-07-13T18:19:57.593Z,4.60
2018-07-13T18:22:26.157Z,3.57
2018-07-13T18:24:54.854Z,5.63
2018-07-13T18:27:23.435Z,5.47
2018-07-13T18:29:51.910Z,4.25
2018-07-13T18:32:20.375Z,3.57
2018-07-13T18:34:48.818Z,4.78
2018-07-13T18:37:17.305Z,4.73
2018-07-13T18:39:45.694Z,3.97
2018-07-13T18:42:14.178Z,7.77
2018-07-13T18:44:42.627Z,4.20
2018-07-13T18:47:11.653Z,3.50
2018-07-13T18:49:40.262Z,5.60
2018-07-13T18:52:08.758Z,5.20
2018-07-13T18:54:37.162Z,4.10
2018-07-13T18:57:05.878Z,4.40
2018-07-13T18:59:34.325Z,3.13
2018-07-13T19:02:02.745Z,3.73
2018-07-13T19:04:31.302Z,6.00
2018-07-13T19:06:59.698Z,4.20
2018-07-13T19:09:28.176Z,4.43
2018-07-13T19:11:56.616Z,5.80
2018-07-13T19:14:25.056Z,4.87
2018-07-13T19:16:53.468Z,7.80
2018-07-13T19:19:22.000Z,6.27
2018-07-13T19:21:50.530Z,5.67
2018-07-13T19:24:18.964Z,3.77
2018-07-13T19:26:47.389Z,5.87
2018-07-13T19:29:15.788Z,7.43
2018-07-13T19:31:44.254Z,6.90
2018-07-13T19:34:12.660Z,6.50
2018-07-13T19:36:41.088Z,5.93
2018-07-13T19:39:09.553Z,7.07
2018-07-13T19:41:38.104Z,6.60
2018-07-13T19:44:06.816Z,8.60
2018-07-13T19:46:35.548Z,6.60
2018-07-13T19:49:04.140Z,4.57
2018-07-13T19:51:32.694Z,5.60
2018-07-13T19:54:00.827Z,5.97
2018-07-13T19:56:29.292Z,4.20
2018-07-13T19:58:57.698Z,6.47
2018-07-13T20:01:26.326Z,7.80
2018-07-13T20:03:54.757Z,6.13
2018-07-13T20:06:23.368Z,8.87
2018-07-13T20:08:51.794Z,11.43
2018-07-13T20:11:20.523Z,11.63
2018-07-13T20:13:48.977Z,16.70
2018-07-13T20:16:18.046Z,14.83
2018-07-13T20:18:46.533Z,22.53
2018-07-13T20:21:14.979Z,22.87
2018-07-13T20:23:43.456Z,25.30
2018-07-13T20:26:12.122Z,19.73
2018-07-13T20:28:40.532Z,11.80
2018-07-13T20:31:09.180Z,15.00
2018-07-13T20:33:37.727Z,11.70
2018-07-13T20:36:06.241Z,11.87
2018-07-13T20:38:34.744Z,11.50
2018-07-13T20:41:03.394Z,12.83
2018-07-13T20:43:31.917Z,11.13
2018-07-13T20:46:00.337Z,11.67
2018-07-13T20:48:28.801Z,12.27
2018-07-13T20:50:57.257Z,10.20
2018-07-13T20:53:25.717Z,7.50
2018-07-13T20:55:54.173Z,10.60
2018-07-13T20:58:22.696Z,7.53
2018-07-13T21:00:51.133Z,8.93
2018-07-13T21:03:19.815Z,8.03
2018-07-13T21:05:48.300Z,7.33
2018-07-13T21:08:17.062Z,7.37
2018-07-13T21:10:45.512Z,8.63
2018-07-13T21:13:13.928Z,8.20
2018-07-13T21:15:42.367Z,6.87
2018-07-13T21:18:11.178Z,8.00
2018-07-13T21:20:39.849Z,9.33
2018-07-13T21:23:08.267Z,7.60
2018-07-13T21:25:36.696Z,7.27
2018-07-13T21:28:05.898Z,7.30
2018-07-13T21:30:34.505Z,9.63
2018-07-13T21:33:04.080Z,7.57
2018-07-13T21:35:32.497Z,7.37
2018-07-13T21:38:01.153Z,6.87
2018-07-13T21:40:29.610Z,7.10
2018-07-13T21:42:58.037Z,7.63
2018-07-13T21:45:26.600Z,8.10
2018-07-13T21:47:54.989Z,7.10
2018-07-13T21:50:23.534Z,6.73
2018-07-13T21:52:52.005Z,8.53
2018-07-13T21:55:20.470Z,9.90
2018-07-13T21:57:48.577Z,8.97
2018-07-13T22:00:17.142Z,9.00
2018-07-13T22:02:45.597Z,9.67
2018-07-13T22:05:16.970Z,9.90
2018-07-13T22:07:45.519Z,10.63
2018-07-13T22:10:13.920Z,10.07
2018-07-13T22:12:42.366Z,10.80
2018-07-13T22:15:10.827Z,9.77
2018-07-13T22:17:39.364Z,10.90
2018-07-13T22:20:07.872Z,9.43
2018-07-13T22:22:36.370Z,10.20
2018-07-13T22:25:04.826Z,9.43
2018-07-13T22:27:33.502Z,8.53
2018-07-13T22:30:02.070Z,10.63
2018-07-13T22:32:30.528Z,9.33
2018-07-13T22:34:58.974Z,13.27
2018-07-13T22:37:27.373Z,10.03
2018-07-13T22:39:55.802Z,10.37
2018-07-13T22:42:24.301Z,8.53
2018-07-13T22:44:52.724Z,10.33
2018-07-13T22:47:21.312Z,11.03
2018-07-13T22:49:49.749Z,9.40
2018-07-13T22:52:18.190Z,11.37
2018-07-13T22:54:46.684Z,12.10
2018-07-13T22:57:15.149Z,10.77
2018-07-13T22:59:43.613Z,8.97
2018-07-13T23:02:12.050Z,9.13
2018-07-13T23:04:40.636Z,11.93
2018-07-13T23:07:09.174Z,8.00
2018-07-13T23:09:37.265Z,13.63
2018-07-13T23:12:06.029Z,13.10
2018-07-13T23:14:34.485Z,8.50
2018-07-13T23:17:03.221Z,9.93
2018-07-13T23:19:31.682Z,8.37
2018-07-13T23:22:00.049Z,9.30
2018-07-13T23:24:28.481Z,6.93
2018-07-13T23:26:56.976Z,12.23
2018-07-13T23:29:25.392Z,7.93
2018-07-13T23:31:53.797Z,8.33
2018-07-13T23:34:22.233Z,7.33
2018-07-13T23:36:50.624Z,6.73
2018-07-13T23:39:19.065Z,7.90
2018-07-13T23:41:47.489Z,8.80
2018-07-13T23:44:16.031Z,7.83
2018-07-13T23:46:44.456Z,8.57
2018-07-13T23:49:12.888Z,9.07
2018-07-13T23:51:41.300Z,8.80
2018-07-13T23:54:09.745Z,7.23
2018-07-13T23:56:38.228Z,10.33
2018-07-13T23:59:06.691Z,8.13
